sensor_id;sensor_type;location;lat;lon;timestamp;pressure;altitude;pressure_sealevel;temperature;humidity
55022;BME280;68328;35.990;-86.756;2023-04-27T00:00:40;99177.08;;;20.93;32.97
55022;BME280;68328;35.990;-86.756;2023-04-27T00:03:00;99169.91;;;22.38;31.75
55022;BME280;68328;35.990;-86.756;2023-04-27T00:05:25;99164.81;;;22.82;31.24
55022;BME280;68328;35.990;-86.756;2023-04-27T00:07:51;99160.54;;;22.87;30.99
55022;BME280;68328;35.990;-86.756;2023-04-27T00:10:17;99163.26;;;22.56;31.27
55022;BME280;68328;35.990;-86.756;2023-04-27T00:12:42;99166.81;;;22.88;31.01
55022;BME280;68328;35.990;-86.756;2023-04-27T00:15:09;99170.74;;;22.70;31.36
55022;BME280;68328;35.990;-86.756;2023-04-27T00:17:33;99170.56;;;22.74;31.20
55022;BME280;68328;35.990;-86.756;2023-04-27T00:19:59;99165.88;;;21.89;32.73
55022;BME280;68328;35.990;-86.756;2023-04-27T00:22:24;99161.72;;;21.48;33.08
55022;BME280;68328;35.990;-86.756;2023-04-27T00:24:49;99165.54;;;22.55;32.38
55022;BME280;68328;35.990;-86.756;2023-04-27T00:27:14;99167.94;;;22.23;32.07
55022;BME280;68328;35.990;-86.756;2023-04-27T00:29:39;99168.41;;;22.87;31.51
55022;BME280;68328;35.990;-86.756;2023-04-27T00:32:05;99172.48;;;21.39;32.93
55022;BME280;68328;35.990;-86.756;2023-04-27T00:34:30;99175.46;;;21.79;32.46
55022;BME280;68328;35.990;-86.756;2023-04-27T00:36:56;99171.53;;;22.25;32.08
55022;BME280;68328;35.990;-86.756;2023-04-27T00:39:21;99173.27;;;22.66;31.79
55022;BME280;68328;35.990;-86.756;2023-04-27T00:41:48;99171.46;;;22.50;31.77
55022;BME280;68328;35.990;-86.756;2023-04-27T00:46:39;99169.16;;;22.54;32.62
55022;BME280;68328;35.990;-86.756;2023-04-27T00:49:06;99171.33;;;22.28;32.86
55022;BME280;68328;35.990;-86.756;2023-04-27T00:51:29;99172.53;;;22.15;32.99
55022;BME280;68328;35.990;-86.756;2023-04-27T00:53:56;99173.54;;;21.99;32.93
55022;BME280;68328;35.990;-86.756;2023-04-27T00:56:19;99173.33;;;22.04;32.88
55022;BME280;68328;35.990;-86.756;2023-04-27T00:58:47;99173.21;;;22.05;32.99
55022;BME280;68328;35.990;-86.756;2023-04-27T01:01:10;99174.98;;;22.06;33.05
55022;BME280;68328;35.990;-86.756;2023-04-27T01:03:36;99171.92;;;21.99;33.33
55022;BME280;68328;35.990;-86.756;2023-04-27T01:06:01;99170.66;;;22.01;33.53
55022;BME280;68328;35.990;-86.756;2023-04-27T01:08:27;99170.21;;;21.65;33.72
55022;BME280;68328;35.990;-86.756;2023-04-27T01:10:52;99172.32;;;21.58;33.86
55022;BME280;68328;35.990;-86.756;2023-04-27T01:13:18;99176.10;;;21.22;34.32
55022;BME280;68328;35.990;-86.756;2023-04-27T01:15:42;99176.75;;;21.61;33.83
55022;BME280;68328;35.990;-86.756;2023-04-27T01:18:08;99178.64;;;21.98;34.07
55022;BME280;68328;35.990;-86.756;2023-04-27T01:20:33;99178.91;;;22.03;33.92
55022;BME280;68328;35.990;-86.756;2023-04-27T01:22:59;99181.27;;;21.80;34.14
55022;BME280;68328;35.990;-86.756;2023-04-27T01:25:25;99178.14;;;21.54;34.24
55022;BME280;68328;35.990;-86.756;2023-04-27T01:27:49;99176.51;;;20.98;35.15
55022;BME280;68328;35.990;-86.756;2023-04-27T01:30:15;99173.70;;;20.81;35.30
55022;BME280;68328;35.990;-86.756;2023-04-27T01:32:41;99169.23;;;21.46;34.56
55022;BME280;68328;35.990;-86.756;2023-04-27T01:35:06;99163.45;;;21.64;34.44
55022;BME280;68328;35.990;-86.756;2023-04-27T01:37:32;99165.07;;;21.72;33.95
55022;BME280;68328;35.990;-86.756;2023-04-27T01:39:57;99167.28;;;21.50;34.44
55022;BME280;68328;35.990;-86.756;2023-04-27T01:42:23;99169.08;;;21.67;34.28
55022;BME280;68328;35.990;-86.756;2023-04-27T01:44:49;99162.65;;;21.60;34.01
55022;BME280;68328;35.990;-86.756;2023-04-27T01:47:15;99152.50;;;21.73;34.30
55022;BME280;68328;35.990;-86.756;2023-04-27T01:49:39;99149.03;;;21.32;34.54
55022;BME280;68328;35.990;-86.756;2023-04-27T01:52:05;99155.91;;;21.30;34.95
55022;BME280;68328;35.990;-86.756;2023-04-27T01:54:29;99162.18;;;21.02;35.62
55022;BME280;68328;35.990;-86.756;2023-04-27T01:56:55;99164.99;;;20.93;35.88
55022;BME280;68328;35.990;-86.756;2023-04-27T01:59:21;99163.32;;;20.94;35.98
55022;BME280;68328;35.990;-86.756;2023-04-27T02:01:46;99154.32;;;20.86;35.59
55022;BME280;68328;35.990;-86.756;2023-04-27T02:04:11;99150.76;;;20.85;36.02
55022;BME280;68328;35.990;-86.756;2023-04-27T02:06:36;99157.72;;;20.85;36.41
55022;BME280;68328;35.990;-86.756;2023-04-27T02:09:02;99159.26;;;20.64;36.51
55022;BME280;68328;35.990;-86.756;2023-04-27T02:11:28;99159.54;;;20.43;36.73
55022;BME280;68328;35.990;-86.756;2023-04-27T02:13:53;99156.79;;;20.22;37.25
55022;BME280;68328;35.990;-86.756;2023-04-27T02:16:18;99160.29;;;19.88;37.76
55022;BME280;68328;35.990;-86.756;2023-04-27T02:18:45;99162.70;;;19.67;38.12
55022;BME280;68328;35.990;-86.756;2023-04-27T02:21:10;99164.75;;;19.79;37.87
55022;BME280;68328;35.990;-86.756;2023-04-27T02:23:36;99160.88;;;19.52;37.50
55022;BME280;68328;35.990;-86.756;2023-04-27T02:26:01;99160.12;;;19.72;37.58
55022;BME280;68328;35.990;-86.756;2023-04-27T02:28:26;99160.49;;;19.62;38.48
55022;BME280;68328;35.990;-86.756;2023-04-27T02:30:52;99157.15;;;19.30;38.75
55022;BME280;68328;35.990;-86.756;2023-04-27T02:33:18;99153.84;;;19.52;38.56
55022;BME280;68328;35.990;-86.756;2023-04-27T02:35:42;99151.27;;;19.28;39.19
55022;BME280;68328;35.990;-86.756;2023-04-27T02:38:08;99160.62;;;19.52;39.41
55022;BME280;68328;35.990;-86.756;2023-04-27T02:42:59;99167.02;;;19.49;39.41
55022;BME280;68328;35.990;-86.756;2023-04-27T02:45:26;99161.73;;;19.17;38.73
55022;BME280;68328;35.990;-86.756;2023-04-27T02:47:51;99165.65;;;19.19;38.65
55022;BME280;68328;35.990;-86.756;2023-04-27T02:50:16;99164.06;;;19.31;39.11
55022;BME280;68328;35.990;-86.756;2023-04-27T02:52:42;99161.34;;;19.40;38.78
55022;BME280;68328;35.990;-86.756;2023-04-27T02:55:08;99157.71;;;19.50;39.49
55022;BME280;68328;35.990;-86.756;2023-04-27T02:57:33;99161.11;;;19.15;40.31
55022;BME280;68328;35.990;-86.756;2023-04-27T03:00:07;99168.93;;;19.27;40.19
55022;BME280;68328;35.990;-86.756;2023-04-27T03:02:25;99167.98;;;19.19;39.91
55022;BME280;68328;35.990;-86.756;2023-04-27T03:04:52;99159.60;;;19.34;39.54
55022;BME280;68328;35.990;-86.756;2023-04-27T03:07:16;99151.99;;;19.63;39.18
55022;BME280;68328;35.990;-86.756;2023-04-27T03:09:42;99151.31;;;19.65;39.53
55022;BME280;68328;35.990;-86.756;2023-04-27T03:12:09;99146.63;;;19.31;39.92
55022;BME280;68328;35.990;-86.756;2023-04-27T03:14:33;99136.47;;;19.37;39.82
55022;BME280;68328;35.990;-86.756;2023-04-27T03:16:59;99131.59;;;19.61;39.71
55022;BME280;68328;35.990;-86.756;2023-04-27T03:19:25;99131.33;;;19.32;39.84
55022;BME280;68328;35.990;-86.756;2023-04-27T03:21:50;99131.49;;;19.55;39.99
55022;BME280;68328;35.990;-86.756;2023-04-27T03:24:17;99129.17;;;19.03;40.09
55022;BME280;68328;35.990;-86.756;2023-04-27T03:26:42;99129.22;;;19.43;40.25
55022;BME280;68328;35.990;-86.756;2023-04-27T03:29:07;99130.02;;;18.89;39.56
55022;BME280;68328;35.990;-86.756;2023-04-27T03:31:33;99133.54;;;19.44;40.12
55022;BME280;68328;35.990;-86.756;2023-04-27T03:33:59;99132.75;;;19.40;39.73
55022;BME280;68328;35.990;-86.756;2023-04-27T03:36:25;99125.65;;;19.11;39.37
55022;BME280;68328;35.990;-86.756;2023-04-27T03:38:50;99112.80;;;19.23;40.17
55022;BME280;68328;35.990;-86.756;2023-04-27T03:41:15;99110.07;;;19.27;40.62
55022;BME280;68328;35.990;-86.756;2023-04-27T03:43:40;99109.36;;;19.09;40.71
55022;BME280;68328;35.990;-86.756;2023-04-27T03:46:07;99110.08;;;19.12;40.69
55022;BME280;68328;35.990;-86.756;2023-04-27T03:48:32;99108.99;;;18.84;40.98
55022;BME280;68328;35.990;-86.756;2023-04-27T03:50:57;99111.15;;;18.86;40.90
55022;BME280;68328;35.990;-86.756;2023-04-27T03:53:22;99118.47;;;18.67;40.60
55022;BME280;68328;35.990;-86.756;2023-04-27T03:55:48;99113.81;;;18.68;41.48
55022;BME280;68328;35.990;-86.756;2023-04-27T03:58:14;99108.97;;;18.46;41.58
55022;BME280;68328;35.990;-86.756;2023-04-27T04:00:40;99105.64;;;18.30;41.32
55022;BME280;68328;35.990;-86.756;2023-04-27T04:03:05;99102.07;;;18.17;41.50
55022;BME280;68328;35.990;-86.756;2023-04-27T04:05:30;99097.72;;;18.68;41.41
55022;BME280;68328;35.990;-86.756;2023-04-27T04:07:56;99099.05;;;18.71;41.26
55022;BME280;68328;35.990;-86.756;2023-04-27T04:10:21;99104.05;;;18.38;41.79
55022;BME280;68328;35.990;-86.756;2023-04-27T04:12:46;99105.12;;;18.29;41.81
55022;BME280;68328;35.990;-86.756;2023-04-27T04:15:12;99107.00;;;18.51;41.77
55022;BME280;68328;35.990;-86.756;2023-04-27T04:17:37;99110.76;;;18.46;41.93
55022;BME280;68328;35.990;-86.756;2023-04-27T04:20:03;99110.57;;;18.46;41.94
55022;BME280;68328;35.990;-86.756;2023-04-27T04:22:28;99109.75;;;18.30;41.77
55022;BME280;68328;35.990;-86.756;2023-04-27T04:24:54;99107.52;;;18.40;41.82
55022;BME280;68328;35.990;-86.756;2023-04-27T04:27:20;99102.59;;;18.32;41.59
55022;BME280;68328;35.990;-86.756;2023-04-27T04:29:44;99098.31;;;18.46;41.87
55022;BME280;68328;35.990;-86.756;2023-04-27T04:32:10;99100.40;;;18.07;42.39
55022;BME280;68328;35.990;-86.756;2023-04-27T04:34:36;99101.50;;;18.00;42.04
55022;BME280;68328;35.990;-86.756;2023-04-27T04:37:00;99098.16;;;17.92;42.57
55022;BME280;68328;35.990;-86.756;2023-04-27T04:39:30;99090.94;;;17.91;42.59
55022;BME280;68328;35.990;-86.756;2023-04-27T04:41:52;99081.35;;;17.89;42.45
55022;BME280;68328;35.990;-86.756;2023-04-27T04:44:18;99078.31;;;17.92;42.34
55022;BME280;68328;35.990;-86.756;2023-04-27T04:46:43;99073.99;;;18.00;42.45
55022;BME280;68328;35.990;-86.756;2023-04-27T04:49:09;99072.16;;;17.77;42.94
55022;BME280;68328;35.990;-86.756;2023-04-27T04:51:34;99066.11;;;17.71;42.95
55022;BME280;68328;35.990;-86.756;2023-04-27T04:53:59;99070.92;;;17.53;43.42
55022;BME280;68328;35.990;-86.756;2023-04-27T04:56:26;99067.68;;;17.45;43.73
55022;BME280;68328;35.990;-86.756;2023-04-27T04:58:51;99067.70;;;17.34;43.24
55022;BME280;68328;35.990;-86.756;2023-04-27T05:01:17;99063.82;;;17.68;43.73
55022;BME280;68328;35.990;-86.756;2023-04-27T05:03:41;99056.21;;;17.45;43.72
55022;BME280;68328;35.990;-86.756;2023-04-27T05:06:07;99048.65;;;17.43;43.60
55022;BME280;68328;35.990;-86.756;2023-04-27T05:08:33;99047.95;;;17.50;43.51
55022;BME280;68328;35.990;-86.756;2023-04-27T05:10:58;99047.48;;;17.66;43.11
55022;BME280;68328;35.990;-86.756;2023-04-27T05:13:24;99052.24;;;17.47;43.41
55022;BME280;68328;35.990;-86.756;2023-04-27T05:15:49;99059.06;;;17.62;43.43
55022;BME280;68328;35.990;-86.756;2023-04-27T05:18:14;99063.46;;;17.52;43.35
55022;BME280;68328;35.990;-86.756;2023-04-27T05:20:39;99068.38;;;17.90;43.62
55022;BME280;68328;35.990;-86.756;2023-04-27T05:23:05;99077.30;;;17.33;43.82
55022;BME280;68328;35.990;-86.756;2023-04-27T05:25:33;99075.59;;;17.23;44.16
55022;BME280;68328;35.990;-86.756;2023-04-27T05:27:57;99078.68;;;17.45;43.86
55022;BME280;68328;35.990;-86.756;2023-04-27T05:30:22;99079.10;;;16.93;44.26
55022;BME280;68328;35.990;-86.756;2023-04-27T05:32:48;99080.85;;;17.15;44.42
55022;BME280;68328;35.990;-86.756;2023-04-27T05:35:14;99086.20;;;17.17;44.56
55022;BME280;68328;35.990;-86.756;2023-04-27T05:37:38;99086.84;;;17.13;44.56
55022;BME280;68328;35.990;-86.756;2023-04-27T05:40:03;99085.74;;;17.01;45.02
55022;BME280;68328;35.990;-86.756;2023-04-27T05:42:28;99089.58;;;17.07;44.56
55022;BME280;68328;35.990;-86.756;2023-04-27T05:44:53;99096.29;;;16.94;44.76
55022;BME280;68328;35.990;-86.756;2023-04-27T05:47:19;99100.31;;;17.03;44.52
55022;BME280;68328;35.990;-86.756;2023-04-27T05:52:10;99100.90;;;16.85;44.67
55022;BME280;68328;35.990;-86.756;2023-04-27T05:54:34;99103.39;;;17.14;44.16
55022;BME280;68328;35.990;-86.756;2023-04-27T05:57:00;99102.11;;;17.46;44.22
55022;BME280;68328;35.990;-86.756;2023-04-27T05:59:25;99097.41;;;17.04;44.15
55022;BME280;68328;35.990;-86.756;2023-04-27T06:01:52;99090.65;;;17.06;44.32
55022;BME280;68328;35.990;-86.756;2023-04-27T06:04:16;99086.19;;;17.44;44.63
55022;BME280;68328;35.990;-86.756;2023-04-27T06:06:41;99090.45;;;17.16;44.57
55022;BME280;68328;35.990;-86.756;2023-04-27T06:09:06;99090.63;;;17.40;44.80
55022;BME280;68328;35.990;-86.756;2023-04-27T06:11:32;99086.92;;;17.17;44.57
55022;BME280;68328;35.990;-86.756;2023-04-27T06:13:57;99079.81;;;16.86;44.86
55022;BME280;68328;35.990;-86.756;2023-04-27T06:16:22;99074.90;;;17.18;44.95
55022;BME280;68328;35.990;-86.756;2023-04-27T06:18:49;99064.60;;;16.91;44.77
55022;BME280;68328;35.990;-86.756;2023-04-27T06:21:14;99072.03;;;16.97;45.02
55022;BME280;68328;35.990;-86.756;2023-04-27T06:23:38;99080.33;;;17.15;44.76
55022;BME280;68328;35.990;-86.756;2023-04-27T06:26:03;99080.77;;;17.02;44.78
55022;BME280;68328;35.990;-86.756;2023-04-27T06:28:28;99072.37;;;17.29;45.35
55022;BME280;68328;35.990;-86.756;2023-04-27T06:30:54;99065.87;;;16.87;45.87
55022;BME280;68328;35.990;-86.756;2023-04-27T06:33:19;99060.57;;;16.62;46.07
55022;BME280;68328;35.990;-86.756;2023-04-27T06:35:44;99054.93;;;16.60;46.03
55022;BME280;68328;35.990;-86.756;2023-04-27T06:38:09;99043.37;;;16.73;45.58
55022;BME280;68328;35.990;-86.756;2023-04-27T06:40:35;99044.75;;;16.70;45.21
55022;BME280;68328;35.990;-86.756;2023-04-27T06:43:01;99041.85;;;17.01;45.10
55022;BME280;68328;35.990;-86.756;2023-04-27T06:45:26;99039.55;;;17.08;45.12
55022;BME280;68328;35.990;-86.756;2023-04-27T06:47:51;99035.07;;;16.86;44.77
55022;BME280;68328;35.990;-86.756;2023-04-27T06:50:17;99031.37;;;17.16;45.02
55022;BME280;68328;35.990;-86.756;2023-04-27T06:52:42;99028.33;;;16.77;45.17
55022;BME280;68328;35.990;-86.756;2023-04-27T06:55:08;99024.60;;;16.89;45.33
55022;BME280;68328;35.990;-86.756;2023-04-27T06:57:35;99015.20;;;16.62;45.33
55022;BME280;68328;35.990;-86.756;2023-04-27T06:59:58;99009.09;;;16.71;45.32
55022;BME280;68328;35.990;-86.756;2023-04-27T07:02:23;99006.25;;;16.73;45.27
55022;BME280;68328;35.990;-86.756;2023-04-27T07:04:49;98996.43;;;16.74;45.39
55022;BME280;68328;35.990;-86.756;2023-04-27T07:07:14;98986.70;;;16.89;45.44
55022;BME280;68328;35.990;-86.756;2023-04-27T07:09:39;98983.25;;;16.73;45.47
55022;BME280;68328;35.990;-86.756;2023-04-27T07:12:04;98990.37;;;16.70;46.02
55022;BME280;68328;35.990;-86.756;2023-04-27T07:14:30;99000.55;;;16.69;45.98
55022;BME280;68328;35.990;-86.756;2023-04-27T07:16:55;99007.43;;;16.73;45.65
55022;BME280;68328;35.990;-86.756;2023-04-27T07:19:20;99013.32;;;16.80;45.74
55022;BME280;68328;35.990;-86.756;2023-04-27T07:21:45;99012.51;;;16.61;45.88
55022;BME280;68328;35.990;-86.756;2023-04-27T07:24:10;99013.06;;;16.66;45.94
55022;BME280;68328;35.990;-86.756;2023-04-27T07:26:37;99011.29;;;16.58;45.96
55022;BME280;68328;35.990;-86.756;2023-04-27T07:29:01;99006.44;;;16.51;46.12
55022;BME280;68328;35.990;-86.756;2023-04-27T07:31:27;98999.80;;;16.45;46.32
55022;BME280;68328;35.990;-86.756;2023-04-27T07:33:53;98992.61;;;16.59;45.96
55022;BME280;68328;35.990;-86.756;2023-04-27T07:36:18;98990.10;;;16.47;45.73
55022;BME280;68328;35.990;-86.756;2023-04-27T07:38:43;98988.34;;;16.64;45.88
55022;BME280;68328;35.990;-86.756;2023-04-27T07:41:09;98984.22;;;16.58;45.58
55022;BME280;68328;35.990;-86.756;2023-04-27T07:43:33;98982.11;;;16.89;45.32
55022;BME280;68328;35.990;-86.756;2023-04-27T07:45:59;98979.86;;;16.66;44.75
55022;BME280;68328;35.990;-86.756;2023-04-27T07:48:24;98972.09;;;16.62;44.91
55022;BME280;68328;35.990;-86.756;2023-04-27T07:50:49;98969.96;;;16.92;44.93
55022;BME280;68328;35.990;-86.756;2023-04-27T07:53:15;98968.10;;;16.98;44.79
55022;BME280;68328;35.990;-86.756;2023-04-27T07:55:40;98968.66;;;16.71;45.05
55022;BME280;68328;35.990;-86.756;2023-04-27T07:58:05;98968.49;;;16.93;45.03
55022;BME280;68328;35.990;-86.756;2023-04-27T08:00:31;98964.60;;;16.68;45.60
55022;BME280;68328;35.990;-86.756;2023-04-27T08:02:56;98960.10;;;16.66;46.03
55022;BME280;68328;35.990;-86.756;2023-04-27T08:05:22;98952.43;;;16.34;46.10
55022;BME280;68328;35.990;-86.756;2023-04-27T08:07:46;98951.79;;;16.45;46.14
55022;BME280;68328;35.990;-86.756;2023-04-27T08:10:12;98953.43;;;16.40;46.21
55022;BME280;68328;35.990;-86.756;2023-04-27T08:12:38;98962.58;;;16.11;46.23
55022;BME280;68328;35.990;-86.756;2023-04-27T08:15:05;98969.06;;;16.31;46.36
55022;BME280;68328;35.990;-86.756;2023-04-27T08:17:28;98969.36;;;16.35;45.81
55022;BME280;68328;35.990;-86.756;2023-04-27T08:19:55;98967.31;;;16.40;45.95
55022;BME280;68328;35.990;-86.756;2023-04-27T08:22:19;98970.31;;;16.41;46.21
55022;BME280;68328;35.990;-86.756;2023-04-27T08:24:45;98971.28;;;16.29;46.23
55022;BME280;68328;35.990;-86.756;2023-04-27T08:27:10;98971.56;;;16.25;46.22
55022;BME280;68328;35.990;-86.756;2023-04-27T08:29:37;98979.09;;;16.35;46.48
55022;BME280;68328;35.990;-86.756;2023-04-27T08:32:02;98985.48;;;16.17;46.22
55022;BME280;68328;35.990;-86.756;2023-04-27T08:34:26;98985.71;;;16.27;46.25
55022;BME280;68328;35.990;-86.756;2023-04-27T08:36:51;98984.45;;;16.26;46.23
55022;BME280;68328;35.990;-86.756;2023-04-27T08:39:17;98984.83;;;16.35;46.38
55022;BME280;68328;35.990;-86.756;2023-04-27T08:41:42;98980.35;;;16.28;46.59
55022;BME280;68328;35.990;-86.756;2023-04-27T08:44:07;98979.63;;;16.16;46.43
55022;BME280;68328;35.990;-86.756;2023-04-27T08:46:32;98979.44;;;16.24;46.87
55022;BME280;68328;35.990;-86.756;2023-04-27T08:48:56;98976.96;;;16.27;46.92
55022;BME280;68328;35.990;-86.756;2023-04-27T08:51:22;98972.24;;;16.17;46.23
55022;BME280;68328;35.990;-86.756;2023-04-27T08:53:49;98970.46;;;16.52;46.13
55022;BME280;68328;35.990;-86.756;2023-04-27T08:56:13;98971.37;;;16.41;45.77
55022;BME280;68328;35.990;-86.756;2023-04-27T08:58:38;98971.86;;;16.35;45.86
55022;BME280;68328;35.990;-86.756;2023-04-27T09:01:05;98975.89;;;16.32;46.03
55022;BME280;68328;35.990;-86.756;2023-04-27T09:03:28;98978.09;;;16.45;46.06
55022;BME280;68328;35.990;-86.756;2023-04-27T09:05:53;98975.88;;;16.39;45.81
55022;BME280;68328;35.990;-86.756;2023-04-27T09:08:18;98980.73;;;16.28;46.12
55022;BME280;68328;35.990;-86.756;2023-04-27T09:10:45;98985.76;;;16.28;46.57
55022;BME280;68328;35.990;-86.756;2023-04-27T09:13:09;98989.53;;;16.37;46.35
55022;BME280;68328;35.990;-86.756;2023-04-27T09:15:42;98990.82;;;16.42;46.32
55022;BME280;68328;35.990;-86.756;2023-04-27T09:18:01;98986.07;;;16.56;45.98
55022;BME280;68328;35.990;-86.756;2023-04-27T09:20:26;98977.73;;;16.54;46.11
55022;BME280;68328;35.990;-86.756;2023-04-27T09:22:51;98985.62;;;16.44;46.37
55022;BME280;68328;35.990;-86.756;2023-04-27T09:25:26;98987.16;;;16.75;46.01
55022;BME280;68328;35.990;-86.756;2023-04-27T09:27:43;98993.13;;;16.47;46.38
55022;BME280;68328;35.990;-86.756;2023-04-27T09:30:11;98995.62;;;16.34;46.24
55022;BME280;68328;35.990;-86.756;2023-04-27T09:32:31;98996.96;;;16.40;46.04
55022;BME280;68328;35.990;-86.756;2023-04-27T09:34:57;98992.89;;;16.60;46.09
55022;BME280;68328;35.990;-86.756;2023-04-27T09:37:22;98990.19;;;16.65;45.92
55022;BME280;68328;35.990;-86.756;2023-04-27T09:39:47;98994.67;;;16.68;45.98
55022;BME280;68328;35.990;-86.756;2023-04-27T09:42:13;98998.93;;;16.65;46.19
55022;BME280;68328;35.990;-86.756;2023-04-27T09:44:38;98999.46;;;16.66;46.03
55022;BME280;68328;35.990;-86.756;2023-04-27T09:47:03;99001.20;;;16.47;46.08
55022;BME280;68328;35.990;-86.756;2023-04-27T09:49:29;98999.94;;;16.71;46.20
55022;BME280;68328;35.990;-86.756;2023-04-27T09:51:55;98998.18;;;16.49;46.07
55022;BME280;68328;35.990;-86.756;2023-04-27T09:54:20;98999.69;;;16.52;45.60
55022;BME280;68328;35.990;-86.756;2023-04-27T09:56:54;99007.72;;;16.49;46.01
55022;BME280;68328;35.990;-86.756;2023-04-27T09:59:23;99012.19;;;16.21;46.04
55022;BME280;68328;35.990;-86.756;2023-04-27T10:01:42;99009.88;;;16.52;46.35
55022;BME280;68328;35.990;-86.756;2023-04-27T10:04:11;99009.54;;;16.65;46.28
55022;BME280;68328;35.990;-86.756;2023-04-27T10:06:49;99000.11;;;16.98;45.93
55022;BME280;68328;35.990;-86.756;2023-04-27T10:08:54;98996.82;;;16.56;45.92
55022;BME280;68328;35.990;-86.756;2023-04-27T10:11:17;98995.80;;;16.80;46.11
55022;BME280;68328;35.990;-86.756;2023-04-27T10:13:50;98994.54;;;16.61;46.10
55022;BME280;68328;35.990;-86.756;2023-04-27T10:16:14;98996.08;;;16.88;46.17
55022;BME280;68328;35.990;-86.756;2023-04-27T10:18:33;98992.21;;;16.89;45.53
55022;BME280;68328;35.990;-86.756;2023-04-27T10:21:09;98991.22;;;16.95;45.35
55022;BME280;68328;35.990;-86.756;2023-04-27T10:23:25;98994.44;;;16.94;45.27
55022;BME280;68328;35.990;-86.756;2023-04-27T10:25:50;98989.73;;;17.16;45.50
55022;BME280;68328;35.990;-86.756;2023-04-27T10:28:16;98989.05;;;17.11;45.17
55022;BME280;68328;35.990;-86.756;2023-04-27T10:30:45;98985.39;;;17.08;45.13
55022;BME280;68328;35.990;-86.756;2023-04-27T10:33:07;98983.29;;;17.30;44.94
55022;BME280;68328;35.990;-86.756;2023-04-27T10:35:33;98986.26;;;17.16;45.52
55022;BME280;68328;35.990;-86.756;2023-04-27T10:38:05;98989.19;;;16.98;45.47
55022;BME280;68328;35.990;-86.756;2023-04-27T10:40:31;98988.70;;;17.09;44.90
55022;BME280;68328;35.990;-86.756;2023-04-27T10:42:47;98987.07;;;17.06;45.15
55022;BME280;68328;35.990;-86.756;2023-04-27T10:45:12;98983.07;;;17.05;45.05
55022;BME280;68328;35.990;-86.756;2023-04-27T10:47:38;98993.44;;;17.21;44.74
55022;BME280;68328;35.990;-86.756;2023-04-27T10:50:04;98994.10;;;17.21;44.94
55022;BME280;68328;35.990;-86.756;2023-04-27T10:52:30;98993.54;;;17.18;45.02
55022;BME280;68328;35.990;-86.756;2023-04-27T10:54:55;98994.02;;;17.30;45.03
55022;BME280;68328;35.990;-86.756;2023-04-27T10:57:20;98995.14;;;17.40;44.72
55022;BME280;68328;35.990;-86.756;2023-04-27T10:59:50;98990.08;;;17.31;45.00
55022;BME280;68328;35.990;-86.756;2023-04-27T11:02:10;98990.71;;;17.33;45.05
55022;BME280;68328;35.990;-86.756;2023-04-27T11:04:36;98993.47;;;17.33;44.99
55022;BME280;68328;35.990;-86.756;2023-04-27T11:07:01;98993.10;;;17.38;45.01
55022;BME280;68328;35.990;-86.756;2023-04-27T11:09:27;98993.18;;;17.38;45.21
55022;BME280;68328;35.990;-86.756;2023-04-27T11:11:53;98989.52;;;17.67;45.09
55022;BME280;68328;35.990;-86.756;2023-04-27T11:14:19;98991.25;;;17.44;45.04
55022;BME280;68328;35.990;-86.756;2023-04-27T11:16:46;98997.09;;;17.45;44.90
55022;BME280;68328;35.990;-86.756;2023-04-27T11:19:08;99000.67;;;17.43;44.88
55022;BME280;68328;35.990;-86.756;2023-04-27T11:21:36;98995.76;;;17.49;44.98
55022;BME280;68328;35.990;-86.756;2023-04-27T11:24:04;98990.86;;;17.50;44.80
55022;BME280;68328;35.990;-86.756;2023-04-27T11:26:26;98986.62;;;17.46;45.02
55022;BME280;68328;35.990;-86.756;2023-04-27T11:28:56;98986.85;;;17.49;45.00
55022;BME280;68328;35.990;-86.756;2023-04-27T11:31:15;98983.48;;;17.55;44.76
55022;BME280;68328;35.990;-86.756;2023-04-27T11:33:47;98973.65;;;17.55;44.80
55022;BME280;68328;35.990;-86.756;2023-04-27T11:36:15;98967.87;;;17.27;44.80
55022;BME280;68328;35.990;-86.756;2023-04-27T11:38:33;98964.82;;;17.52;45.12
55022;BME280;68328;35.990;-86.756;2023-04-27T11:40:59;98966.41;;;17.47;44.94
55022;BME280;68328;35.990;-86.756;2023-04-27T11:43:25;98966.80;;;17.41;45.14
55022;BME280;68328;35.990;-86.756;2023-04-27T11:45:51;98960.57;;;17.44;45.34
55022;BME280;68328;35.990;-86.756;2023-04-27T11:48:16;98956.52;;;17.53;45.01
55022;BME280;68328;35.990;-86.756;2023-04-27T11:50:41;98961.37;;;17.63;45.03
55022;BME280;68328;35.990;-86.756;2023-04-27T11:53:08;98964.49;;;17.77;44.79
55022;BME280;68328;35.990;-86.756;2023-04-27T11:55:35;98964.77;;;17.57;44.46
55022;BME280;68328;35.990;-86.756;2023-04-27T11:57:57;98961.53;;;17.39;44.44
55022;BME280;68328;35.990;-86.756;2023-04-27T12:00:23;98960.52;;;17.87;44.53
55022;BME280;68328;35.990;-86.756;2023-04-27T12:02:49;98957.69;;;17.72;44.29
55022;BME280;68328;35.990;-86.756;2023-04-27T12:05:15;98954.45;;;17.82;44.28
55022;BME280;68328;35.990;-86.756;2023-04-27T12:07:41;98954.58;;;18.04;44.43
55022;BME280;68328;35.990;-86.756;2023-04-27T12:10:07;98949.16;;;17.84;44.28
55022;BME280;68328;35.990;-86.756;2023-04-27T12:12:32;98943.15;;;18.12;44.22
55022;BME280;68328;35.990;-86.756;2023-04-27T12:14:56;98939.68;;;17.58;44.41
55022;BME280;68328;35.990;-86.756;2023-04-27T12:17:22;98935.39;;;17.77;44.68
55022;BME280;68328;35.990;-86.756;2023-04-27T12:19:47;98927.61;;;17.77;44.36
55022;BME280;68328;35.990;-86.756;2023-04-27T12:22:13;98927.51;;;18.11;44.15
55022;BME280;68328;35.990;-86.756;2023-04-27T12:24:38;98927.84;;;17.88;43.99
55022;BME280;68328;35.990;-86.756;2023-04-27T12:27:03;98927.23;;;17.61;44.27
55022;BME280;68328;35.990;-86.756;2023-04-27T12:29:28;98924.16;;;17.73;44.40
55022;BME280;68328;35.990;-86.756;2023-04-27T12:31:53;98925.04;;;17.62;44.29
55022;BME280;68328;35.990;-86.756;2023-04-27T12:34:21;98927.50;;;17.80;43.78
55022;BME280;68328;35.990;-86.756;2023-04-27T12:36:44;98927.98;;;18.09;44.03